createdAt,value
2023-03-05T00:01:33.374Z,97.48
2023-03-05T00:03:35.397Z,97.29
2023-03-05T00:05:36.891Z,96.91
2023-03-05T00:07:38.398Z,96.80
2023-03-05T00:09:40.613Z,96.58
2023-03-05T00:11:42.185Z,96.50
2023-03-05T00:13:43.693Z,96.46
2023-03-05T00:15:45.133Z,95.97
2023-03-05T00:17:46.657Z,95.80
2023-03-05T00:19:48.185Z,96.02
2023-03-05T00:21:49.652Z,95.87
2023-03-05T00:23:52.079Z,95.90
2023-03-05T00:25:53.974Z,95.92
2023-03-05T00:27:55.520Z,95.59
2023-03-05T00:29:57.248Z,95.45
2023-03-05T00:31:58.799Z,95.80
2023-03-05T00:34:03.174Z,95.74
2023-03-05T00:36:08.395Z,95.60
2023-03-05T00:38:10.727Z,95.73
2023-03-05T00:40:12.772Z,95.94
2023-03-05T00:42:14.283Z,95.71
2023-03-05T00:44:15.876Z,95.54
2023-03-05T00:46:17.511Z,95.68
2023-03-05T00:48:19.367Z,95.49
2023-03-05T00:50:20.818Z,95.62
2023-03-05T00:52:22.295Z,95.77
2023-03-05T00:54:23.845Z,95.63
2023-03-05T00:56:25.624Z,95.85
2023-03-05T00:58:27.457Z,95.98
2023-03-05T01:00:29.118Z,95.91
2023-03-05T01:02:31.834Z,95.93
2023-03-05T01:04:34.833Z,95.78
2023-03-05T01:06:36.350Z,96.22
2023-03-05T01:08:38.259Z,95.99
2023-03-05T01:10:39.771Z,95.93
2023-03-05T01:12:41.248Z,96.15
2023-03-05T01:14:42.741Z,96.45
2023-03-05T01:16:44.282Z,96.70
2023-03-05T01:18:45.776Z,97.15
2023-03-05T01:20:48.226Z,97.60
2023-03-05T01:22:49.850Z,98.09
2023-03-05T01:24:51.343Z,98.46
2023-03-05T01:26:52.821Z,98.91
2023-03-05T01:28:54.336Z,99.41
2023-03-05T01:30:55.947Z,99.54
2023-03-05T01:32:57.441Z,99.86
2023-03-05T01:34:58.882Z,100.00
2023-03-05T01:37:00.422Z,100.00
2023-03-05T01:39:02.740Z,100.00
2023-03-05T01:41:04.487Z,100.00
2023-03-05T01:43:11.980Z,100.00
2023-03-05T01:45:17.147Z,100.00
2023-03-05T01:47:18.620Z,100.00
2023-03-05T01:49:27.923Z,100.00
2023-03-05T01:51:33.886Z,100.00
2023-03-05T01:53:36.375Z,100.00
2023-03-05T01:55:38.112Z,100.00
2023-03-05T01:57:48.775Z,100.00
2023-03-05T01:59:53.894Z,100.00
2023-03-05T02:01:57.705Z,100.00
2023-03-05T02:04:00.097Z,100.00
2023-03-05T02:06:01.606Z,100.00
2023-03-05T02:08:06.571Z,100.00
2023-03-05T02:10:22.886Z,100.00
2023-03-05T02:12:27.385Z,100.00
2023-03-05T02:14:29.061Z,100.00
2023-03-05T02:16:35.924Z,100.00
2023-03-05T02:18:37.550Z,100.00
2023-03-05T02:20:47.028Z,100.00
2023-03-05T02:22:48.559Z,100.00
2023-03-05T02:24:50.652Z,100.00
2023-03-05T02:26:52.226Z,100.00
2023-03-05T02:28:58.279Z,100.00
2023-03-05T02:30:59.797Z,100.00
2023-03-05T02:33:01.714Z,100.00
2023-03-05T02:35:03.358Z,100.00
2023-03-05T02:37:08.982Z,100.00
2023-03-05T02:39:10.481Z,100.00
2023-03-05T02:41:12.438Z,100.00
2023-03-05T02:43:13.983Z,100.00
2023-03-05T02:45:15.688Z,100.00
2023-03-05T02:47:17.146Z,100.00
2023-03-05T02:49:18.743Z,100.00
2023-03-05T02:51:20.230Z,100.00
2023-03-05T02:53:23.645Z,100.00
2023-03-05T02:55:25.162Z,100.00
2023-03-05T02:57:26.613Z,100.00
2023-03-05T02:59:28.106Z,100.00
2023-03-05T03:01:29.923Z,100.00
2023-03-05T03:03:31.537Z,100.00
2023-03-05T03:05:33.091Z,100.00
2023-03-05T03:07:36.519Z,100.00
2023-03-05T03:09:38.931Z,100.00
2023-03-05T03:11:40.418Z,100.00
2023-03-05T03:13:41.945Z,100.00
2023-03-05T03:15:43.516Z,100.00
2023-03-05T03:17:45.309Z,100.00
2023-03-05T03:19:46.943Z,100.00
2023-03-05T03:21:50.266Z,100.00
2023-03-05T03:23:51.775Z,100.00
2023-03-05T03:25:53.290Z,100.00
2023-03-05T03:27:54.777Z,100.00
2023-03-05T03:29:56.306Z,100.00
2023-03-05T03:31:58.202Z,100.00
2023-03-05T03:33:59.698Z,100.00
2023-03-05T03:36:01.424Z,100.00
2023-03-05T03:38:03.227Z,100.00
2023-03-05T03:40:06.189Z,100.00
2023-03-05T03:42:07.768Z,100.00
2023-03-05T03:44:10.682Z,100.00
2023-03-05T03:46:12.300Z,100.00
2023-03-05T03:48:13.834Z,100.00
2023-03-05T03:50:15.304Z,100.00
2023-03-05T03:52:17.355Z,100.00
2023-03-05T03:54:19.460Z,100.00
2023-03-05T03:56:20.940Z,100.00
2023-03-05T03:58:22.401Z,100.00
2023-03-05T04:00:24.015Z,100.00
2023-03-05T04:02:26.160Z,100.00
2023-03-05T04:04:29.145Z,100.00
2023-03-05T04:06:31.390Z,100.00
2023-03-05T04:08:32.862Z,100.00
2023-03-05T04:10:34.324Z,100.00
2023-03-05T04:12:35.779Z,100.00
2023-03-05T04:14:37.300Z,100.00
2023-03-05T04:16:38.778Z,100.00
2023-03-05T04:18:40.601Z,100.00
2023-03-05T04:20:42.101Z,100.00
2023-03-05T04:22:43.592Z,100.00
2023-03-05T04:24:45.152Z,100.00
2023-03-05T04:26:46.605Z,100.00
2023-03-05T04:28:48.350Z,100.00
2023-03-05T04:30:49.904Z,100.00
2023-03-05T04:32:51.399Z,100.00
2023-03-05T04:34:52.835Z,100.00
2023-03-05T04:36:54.308Z,100.00
2023-03-05T04:38:55.771Z,100.00
2023-03-05T04:40:57.232Z,100.00
2023-03-05T04:42:58.698Z,100.00
2023-03-05T04:45:00.185Z,100.00
2023-03-05T04:47:01.657Z,100.00
2023-03-05T04:49:03.169Z,100.00
2023-03-05T04:51:04.964Z,100.00
2023-03-05T04:53:06.655Z,100.00
2023-03-05T04:55:09.045Z,100.00
2023-03-05T04:57:10.517Z,100.00
2023-03-05T04:59:12.045Z,100.00
2023-03-05T05:01:13.667Z,100.00
2023-03-05T05:03:15.467Z,100.00
2023-03-05T05:05:22.081Z,100.00
2023-03-05T05:07:23.540Z,100.00
2023-03-05T05:09:25.866Z,100.00
2023-03-05T05:11:27.418Z,100.00
2023-03-05T05:13:30.027Z,100.00
2023-03-05T05:15:32.270Z,100.00
2023-03-05T05:17:34.390Z,100.00
2023-03-05T05:19:35.904Z,100.00
2023-03-05T05:21:37.452Z,100.00
2023-03-05T05:23:39.431Z,100.00
2023-03-05T05:25:41.338Z,100.00
2023-03-05T05:27:42.896Z,100.00
2023-03-05T05:29:46.320Z,100.00
2023-03-05T05:31:48.329Z,100.00
2023-03-05T05:33:50.063Z,100.00
2023-03-05T05:35:51.643Z,100.00
2023-03-05T05:37:53.180Z,100.00
2023-03-05T05:39:54.848Z,100.00
2023-03-05T05:41:56.346Z,100.00
2023-03-05T05:43:57.883Z,100.00
2023-03-05T05:46:05.154Z,100.00
2023-03-05T05:48:07.444Z,100.00
2023-03-05T05:50:10.827Z,100.00
2023-03-05T05:52:13.249Z,100.00
2023-03-05T05:54:15.455Z,100.00
2023-03-05T05:56:18.106Z,100.00
2023-03-05T05:58:19.650Z,100.00
2023-03-05T06:00:21.526Z,100.00
2023-03-05T06:02:23.033Z,100.00
2023-03-05T06:04:24.491Z,100.00
2023-03-05T06:06:27.394Z,100.00
2023-03-05T06:08:28.877Z,100.00
2023-03-05T06:10:30.362Z,100.00
2023-03-05T06:12:31.849Z,100.00
2023-03-05T06:14:33.523Z,100.00
2023-03-05T06:16:35.199Z,100.00
2023-03-05T06:18:36.924Z,100.00
2023-03-05T06:20:38.373Z,100.00
2023-03-05T06:22:40.406Z,100.00
2023-03-05T06:24:41.903Z,100.00
2023-03-05T06:26:43.365Z,100.00
2023-03-05T06:28:44.872Z,100.00
2023-03-05T06:30:46.502Z,100.00
2023-03-05T06:32:48.021Z,100.00
2023-03-05T06:34:50.501Z,100.00
2023-03-05T06:36:52.029Z,100.00
2023-03-05T06:38:54.102Z,100.00
2023-03-05T06:40:55.537Z,100.00
2023-03-05T06:42:57.017Z,100.00
2023-03-05T06:44:58.475Z,100.00
2023-03-05T06:46:59.905Z,100.00
2023-03-05T06:49:02.645Z,100.00
2023-03-05T06:51:04.616Z,100.00
2023-03-05T06:53:06.076Z,100.00
2023-03-05T06:55:08.354Z,100.00
2023-03-05T06:57:10.605Z,100.00
2023-03-05T06:59:13.704Z,100.00
2023-03-05T07:01:15.976Z,100.00
2023-03-05T07:03:18.187Z,100.00
2023-03-05T07:05:19.628Z,100.00
2023-03-05T07:07:21.069Z,100.00
2023-03-05T07:09:22.623Z,100.00
2023-03-05T07:11:25.066Z,100.00
2023-03-05T07:13:27.203Z,100.00
2023-03-05T07:15:28.666Z,100.00
2023-03-05T07:17:30.108Z,100.00
2023-03-05T07:19:31.635Z,100.00
2023-03-05T07:21:34.978Z,100.00
2023-03-05T07:23:37.502Z,100.00
2023-03-05T07:25:39.672Z,100.00
2023-03-05T07:27:41.112Z,100.00
2023-03-05T07:29:42.555Z,100.00
2023-03-05T07:31:44.006Z,100.00
2023-03-05T07:33:50.559Z,100.00
2023-03-05T07:35:52.127Z,100.00
2023-03-05T07:37:54.960Z,100.00
2023-03-05T07:39:56.440Z,100.00
2023-03-05T07:41:57.920Z,100.00
2023-03-05T07:43:59.485Z,100.00
2023-03-05T07:46:07.592Z,100.00
2023-03-05T07:48:13.866Z,100.00
2023-03-05T07:50:15.438Z,100.00
2023-03-05T07:52:16.894Z,100.00
2023-03-05T07:54:18.436Z,100.00
2023-03-05T07:56:25.869Z,100.00
2023-03-05T07:58:27.400Z,100.00
2023-03-05T08:00:29.029Z,100.00
2023-03-05T08:02:30.540Z,100.00
2023-03-05T08:04:32.144Z,100.00
2023-03-05T08:06:33.757Z,100.00
2023-03-05T08:08:36.252Z,100.00
2023-03-05T08:10:38.513Z,100.00
2023-03-05T08:12:40.022Z,100.00
2023-03-05T08:14:41.491Z,100.00
2023-03-05T08:16:42.965Z,100.00
2023-03-05T08:18:45.289Z,100.00
2023-03-05T08:20:46.794Z,100.00
2023-03-05T08:22:48.259Z,100.00
2023-03-05T08:24:50.587Z,100.00
2023-03-05T08:26:52.053Z,100.00
2023-03-05T08:28:54.167Z,100.00
2023-03-05T08:30:55.655Z,100.00
2023-03-05T08:32:57.389Z,100.00
2023-03-05T08:34:58.988Z,100.00
2023-03-05T08:37:00.480Z,100.00
2023-03-05T08:39:01.969Z,100.00
2023-03-05T08:41:03.753Z,100.00
2023-03-05T08:43:06.224Z,100.00
2023-03-05T08:45:09.187Z,100.00
2023-03-05T08:47:10.663Z,100.00
2023-03-05T08:49:12.159Z,100.00
2023-03-05T08:51:16.412Z,100.00
2023-03-05T08:53:17.961Z,100.00
2023-03-05T08:55:19.540Z,99.61
2023-03-05T08:57:21.124Z,98.95
2023-03-05T08:59:22.594Z,98.84
2023-03-05T09:01:24.190Z,98.64
2023-03-05T09:03:26.012Z,98.30
2023-03-05T09:05:27.590Z,98.06
2023-03-05T09:07:29.071Z,97.94
2023-03-05T09:09:32.575Z,97.25
2023-03-05T09:11:36.175Z,97.27
2023-03-05T09:13:37.719Z,97.34
2023-03-05T09:15:39.469Z,97.17
2023-03-05T09:17:42.344Z,96.57
2023-03-05T09:19:44.002Z,96.38
2023-03-05T09:21:45.453Z,97.14
2023-03-05T09:23:47.337Z,97.70
2023-03-05T09:25:49.635Z,98.42
2023-03-05T09:27:51.092Z,98.51
2023-03-05T09:29:53.273Z,98.48
2023-03-05T09:31:54.879Z,98.13
2023-03-05T09:33:56.355Z,98.08
2023-03-05T09:35:58.001Z,97.60
2023-03-05T09:37:59.482Z,97.00
2023-03-05T09:40:01.310Z,96.30
2023-03-05T09:42:23.341Z,95.81
2023-03-05T09:44:58.581Z,96.48
2023-03-05T09:47:21.806Z,96.40
2023-03-05T09:49:50.880Z,96.62
2023-03-05T09:51:57.587Z,96.65
2023-03-05T09:54:12.274Z,96.49
2023-03-05T09:56:16.869Z,96.41
2023-03-05T09:58:31.006Z,96.81
2023-03-05T10:00:45.045Z,96.46
2023-03-05T10:02:58.477Z,95.69
2023-03-05T10:05:18.930Z,95.17
2023-03-05T10:07:26.236Z,94.31
2023-03-05T10:09:49.321Z,93.96
2023-03-05T10:12:28.703Z,94.10
2023-03-05T10:14:34.304Z,94.63
2023-03-05T10:16:50.725Z,94.23
2023-03-05T10:19:04.110Z,92.38
2023-03-05T10:21:30.692Z,91.05
2023-03-05T10:23:47.174Z,90.96
2023-03-05T10:26:01.574Z,90.77
2023-03-05T10:28:09.423Z,89.71
2023-03-05T10:30:38.408Z,88.81
2023-03-05T10:33:15.379Z,88.71
2023-03-05T10:35:25.907Z,88.25
2023-03-05T10:37:55.414Z,87.47
2023-03-05T10:40:18.285Z,84.89
2023-03-05T10:42:28.695Z,84.58
2023-03-05T10:44:44.632Z,84.65
2023-03-05T10:46:48.114Z,84.83
2023-03-05T10:49:06.352Z,83.62
2023-03-05T10:51:31.583Z,83.50
2023-03-05T10:53:44.826Z,83.19
2023-03-05T10:55:46.313Z,82.99
2023-03-05T10:57:48.405Z,82.52
2023-03-05T10:59:51.133Z,83.53
2023-03-05T11:02:04.979Z,82.39
2023-03-05T11:04:28.477Z,82.92
2023-03-05T11:06:34.249Z,84.02
2023-03-05T11:08:36.286Z,83.51
2023-03-05T11:10:37.747Z,83.94
2023-03-05T11:12:39.545Z,83.98
2023-03-05T11:15:10.306Z,83.03
2023-03-05T11:17:37.778Z,82.45
2023-03-05T11:19:41.354Z,82.54
2023-03-05T11:21:44.280Z,82.11
2023-03-05T11:24:21.358Z,81.35
2023-03-05T11:26:23.218Z,81.38
2023-03-05T11:28:33.702Z,81.99
2023-03-05T11:30:36.841Z,82.11
2023-03-05T11:32:38.458Z,83.13
2023-03-05T11:34:40.203Z,83.78
2023-03-05T11:36:43.806Z,83.72
2023-03-05T11:39:08.589Z,83.89
2023-03-05T11:41:10.808Z,85.37
2023-03-05T11:43:18.941Z,87.01
2023-03-05T11:45:20.955Z,87.19
2023-03-05T11:47:34.149Z,87.95
2023-03-05T11:49:43.687Z,88.90
2023-03-05T11:52:08.085Z,90.08
2023-03-05T11:54:16.493Z,91.66
2023-03-05T11:56:26.972Z,91.92
2023-03-05T11:58:39.209Z,91.70
2023-03-05T12:00:44.683Z,91.78
2023-03-05T12:02:52.313Z,94.66
2023-03-05T12:04:53.993Z,95.83
2023-03-05T12:07:02.179Z,94.64
2023-03-05T12:09:11.887Z,91.68
2023-03-05T12:11:18.807Z,89.45
2023-03-05T12:13:28.931Z,91.55
2023-03-05T12:15:46.825Z,91.63
2023-03-05T12:18:03.629Z,91.30
2023-03-05T12:20:11.092Z,87.87
2023-03-05T12:22:20.043Z,84.90
2023-03-05T12:24:27.544Z,83.46
2023-03-05T12:26:59.257Z,82.81
2023-03-05T12:29:01.279Z,80.70
2023-03-05T12:31:27.540Z,80.41
2023-03-05T12:33:43.925Z,80.43
2023-03-05T12:35:45.426Z,78.81
2023-03-05T12:37:50.104Z,78.46
2023-03-05T12:40:04.683Z,77.78
2023-03-05T12:42:45.880Z,78.59
2023-03-05T12:45:09.962Z,79.47
2023-03-05T12:47:11.388Z,80.69
2023-03-05T12:49:18.982Z,76.59
2023-03-05T12:51:35.872Z,77.84
2023-03-05T12:53:37.551Z,77.83
2023-03-05T12:55:47.946Z,79.21
2023-03-05T12:58:11.680Z,79.81
2023-03-05T13:00:26.975Z,79.63
2023-03-05T13:02:34.497Z,81.02
2023-03-05T13:04:46.249Z,81.55
2023-03-05T13:07:02.403Z,83.19
2023-03-05T13:09:15.788Z,83.98
2023-03-05T13:11:21.084Z,83.83
2023-03-05T13:13:25.669Z,82.68
2023-03-05T13:15:27.184Z,81.46
2023-03-05T13:17:35.354Z,81.10
2023-03-05T13:19:36.845Z,81.26
2023-03-05T13:21:38.380Z,79.17
2023-03-05T13:23:52.290Z,76.17
2023-03-05T13:25:59.372Z,76.49
2023-03-05T13:28:07.158Z,77.32
2023-03-05T13:30:22.094Z,78.78
2023-03-05T13:32:33.187Z,80.38
2023-03-05T13:34:47.761Z,81.53
2023-03-05T13:37:25.127Z,79.38
2023-03-05T13:39:30.049Z,80.37
2023-03-05T13:41:31.570Z,79.38
2023-03-05T13:43:33.130Z,77.74
2023-03-05T13:45:34.681Z,77.41
2023-03-05T13:47:37.057Z,78.13
2023-03-05T13:49:38.522Z,79.00
2023-03-05T13:51:49.759Z,78.89
2023-03-05T13:53:52.108Z,79.76
2023-03-05T13:55:59.083Z,81.34
2023-03-05T13:58:00.606Z,82.42
2023-03-05T14:00:02.610Z,84.30
2023-03-05T14:02:15.815Z,86.45
2023-03-05T14:04:27.487Z,86.26
2023-03-05T14:06:30.984Z,87.61
2023-03-05T14:08:33.321Z,87.99
2023-03-05T14:10:37.378Z,89.08
2023-03-05T14:12:42.584Z,89.99
2023-03-05T14:14:44.403Z,90.66
2023-03-05T14:16:45.987Z,90.11
2023-03-05T14:18:59.197Z,91.02
2023-03-05T14:21:09.923Z,89.90
2023-03-05T14:23:32.858Z,89.40
2023-03-05T14:25:38.575Z,89.40
2023-03-05T14:27:40.077Z,89.47
2023-03-05T14:29:46.504Z,87.85
2023-03-05T14:31:58.669Z,87.49
2023-03-05T14:34:06.332Z,86.71
2023-03-05T14:36:10.585Z,85.96
2023-03-05T14:38:22.264Z,85.92
2023-03-05T14:40:33.440Z,84.88
2023-03-05T14:42:55.365Z,85.18
2023-03-05T14:45:01.675Z,85.56
2023-03-05T14:47:03.168Z,84.25
2023-03-05T14:49:04.677Z,84.01
2023-03-05T14:51:07.686Z,83.86
2023-03-05T14:53:15.256Z,83.79
2023-03-05T14:55:22.794Z,83.87
2023-03-05T14:57:29.484Z,84.21
2023-03-05T14:59:30.976Z,84.29
2023-03-05T15:01:32.510Z,85.94
2023-03-05T15:03:34.017Z,85.98
2023-03-05T15:05:37.853Z,85.97
2023-03-05T15:07:39.377Z,87.34
2023-03-05T15:09:40.801Z,88.56
2023-03-05T15:11:42.262Z,89.34
2023-03-05T15:13:43.805Z,90.76
2023-03-05T15:15:47.277Z,91.78
2023-03-05T15:17:56.044Z,92.10
2023-03-05T15:19:57.497Z,93.08
2023-03-05T15:21:58.956Z,93.10
2023-03-05T15:24:00.458Z,92.50
2023-03-05T15:26:05.513Z,91.81
2023-03-05T15:28:07.097Z,91.57
2023-03-05T15:30:14.837Z,91.84
2023-03-05T15:32:16.598Z,91.55
2023-03-05T15:34:18.066Z,91.59
2023-03-05T15:36:19.522Z,90.76
2023-03-05T15:38:21.645Z,91.14
2023-03-05T15:40:23.526Z,90.68
2023-03-05T15:42:24.956Z,90.95
2023-03-05T15:44:26.750Z,90.93
2023-03-05T15:46:28.337Z,91.46
2023-03-05T15:48:29.870Z,91.15
2023-03-05T15:50:31.626Z,91.26
2023-03-05T15:52:33.197Z,92.15
2023-03-05T15:54:35.500Z,92.18
2023-03-05T15:56:37.054Z,92.30
2023-03-05T15:58:39.511Z,92.92
2023-03-05T16:00:41.017Z,93.68
2023-03-05T16:02:42.586Z,94.11
2023-03-05T16:04:44.351Z,94.46
2023-03-05T16:06:48.003Z,94.43
2023-03-05T16:08:53.550Z,94.35
2023-03-05T16:10:55.004Z,94.24
2023-03-05T16:13:04.124Z,94.84
2023-03-05T16:15:06.338Z,95.50
2023-03-05T16:17:08.701Z,95.47
2023-03-05T16:19:12.997Z,95.94
2023-03-05T16:21:14.647Z,96.33
2023-03-05T16:23:16.161Z,95.99
2023-03-05T16:25:18.086Z,95.65
2023-03-05T16:27:19.592Z,96.09
2023-03-05T16:29:21.039Z,95.66
2023-03-05T16:31:22.630Z,95.42
2023-03-05T16:33:25.617Z,96.06
2023-03-05T16:35:27.190Z,95.13
2023-03-05T16:37:28.705Z,95.23
2023-03-05T16:39:30.639Z,95.53
2023-03-05T16:41:32.750Z,95.29
2023-03-05T16:43:34.205Z,95.38
2023-03-05T16:45:37.221Z,95.45
2023-03-05T16:47:39.771Z,94.82
2023-03-05T16:49:41.446Z,95.41
2023-03-05T16:51:42.898Z,95.24
2023-03-05T16:53:44.479Z,95.23
2023-03-05T16:55:45.938Z,95.01
2023-03-05T16:57:47.459Z,95.35
2023-03-05T16:59:48.911Z,95.91
2023-03-05T17:01:50.499Z,96.14
2023-03-05T17:03:53.487Z,96.76
2023-03-05T17:05:55.326Z,97.06
2023-03-05T17:07:56.960Z,97.07
2023-03-05T17:09:58.517Z,96.72
2023-03-05T17:12:00.133Z,96.96
2023-03-05T17:14:03.898Z,96.73
2023-03-05T17:16:06.446Z,97.28
2023-03-05T17:18:08.213Z,96.81
2023-03-05T17:20:10.636Z,96.86
2023-03-05T17:22:12.913Z,97.05
2023-03-05T17:24:14.386Z,96.67
2023-03-05T17:26:17.861Z,96.74
2023-03-05T17:28:19.851Z,96.87
2023-03-05T17:30:21.353Z,96.51
2023-03-05T17:32:22.971Z,96.48
2023-03-05T17:34:35.719Z,95.78
2023-03-05T17:36:39.216Z,96.26
2023-03-05T17:38:40.729Z,95.82
2023-03-05T17:40:42.381Z,95.18
2023-03-05T17:42:43.970Z,95.37
2023-03-05T17:44:45.444Z,95.22
2023-03-05T17:46:47.134Z,94.50
2023-03-05T17:48:48.614Z,94.70
2023-03-05T17:50:50.187Z,94.50
2023-03-05T17:52:51.727Z,94.18
2023-03-05T17:54:53.328Z,94.13
2023-03-05T17:56:56.016Z,94.02
2023-03-05T17:58:57.549Z,93.37
2023-03-05T18:01:00.287Z,93.04
2023-03-05T18:03:02.490Z,92.65
2023-03-05T18:05:04.287Z,92.71
2023-03-05T18:07:06.145Z,92.48
2023-03-05T18:09:07.723Z,91.70
2023-03-05T18:11:09.190Z,91.36
2023-03-05T18:13:10.721Z,91.21
2023-03-05T18:15:14.645Z,89.89
2023-03-05T18:17:16.407Z,89.32
2023-03-05T18:19:18.707Z,89.45
2023-03-05T18:21:21.509Z,89.13
2023-03-05T18:23:23.159Z,88.77
2023-03-05T18:25:30.731Z,88.47
2023-03-05T18:27:32.215Z,88.55
2023-03-05T18:29:34.011Z,88.08
2023-03-05T18:31:35.504Z,87.67
2023-03-05T18:33:38.877Z,88.63
2023-03-05T18:35:40.376Z,88.16
2023-03-05T18:37:41.999Z,88.39
2023-03-05T18:39:43.512Z,88.02
2023-03-05T18:41:46.638Z,88.19
2023-03-05T18:43:48.393Z,87.93
2023-03-05T18:45:51.994Z,88.65
2023-03-05T18:47:54.372Z,88.34
2023-03-05T18:49:56.429Z,88.76
2023-03-05T18:51:57.878Z,88.72
2023-03-05T18:53:59.346Z,88.95
2023-03-05T18:56:01.623Z,88.98
2023-03-05T18:58:03.386Z,88.56
2023-03-05T19:00:05.430Z,88.93
2023-03-05T19:02:14.117Z,88.46
2023-03-05T19:04:15.630Z,88.17
2023-03-05T19:06:17.958Z,88.45
2023-03-05T19:08:20.280Z,88.80
2023-03-05T19:10:22.724Z,88.07
2023-03-05T19:12:30.825Z,88.39
2023-03-05T19:14:32.280Z,88.98
2023-03-05T19:16:40.416Z,88.91
2023-03-05T19:18:57.176Z,88.39
2023-03-05T19:20:58.642Z,88.77
2023-03-05T19:23:00.096Z,88.87
2023-03-05T19:25:01.780Z,88.90
2023-03-05T19:27:10.128Z,88.38
2023-03-05T19:29:12.348Z,89.34
2023-03-05T19:31:14.783Z,88.93
2023-03-05T19:33:16.262Z,88.89
2023-03-05T19:35:18.300Z,88.30
2023-03-05T19:37:20.112Z,88.56
2023-03-05T19:39:21.630Z,88.56
2023-03-05T19:41:23.470Z,88.59
2023-03-05T19:43:24.914Z,88.21
2023-03-05T19:45:26.379Z,88.50
2023-03-05T19:47:28.092Z,88.08
2023-03-05T19:49:29.979Z,88.28
2023-03-05T19:51:31.463Z,88.36
2023-03-05T19:53:32.996Z,87.75
2023-03-05T19:55:39.175Z,87.63
2023-03-05T19:57:40.639Z,87.76
2023-03-05T19:59:44.086Z,87.53
2023-03-05T20:01:46.078Z,87.74
2023-03-05T20:03:49.375Z,87.54
2023-03-05T20:05:50.871Z,87.56
2023-03-05T20:07:53.602Z,87.35
2023-03-05T20:09:55.526Z,87.65
2023-03-05T20:11:58.300Z,87.52
2023-03-05T20:13:59.829Z,86.95
2023-03-05T20:16:01.575Z,86.84
2023-03-05T20:18:03.157Z,86.73
2023-03-05T20:20:05.137Z,86.70
2023-03-05T20:22:06.766Z,86.88
2023-03-05T20:24:12.037Z,86.61
2023-03-05T20:26:13.566Z,87.11
2023-03-05T20:28:15.169Z,86.81
2023-03-05T20:30:17.936Z,87.18
2023-03-05T20:32:19.543Z,86.62
2023-03-05T20:34:21.153Z,86.84
2023-03-05T20:36:23.767Z,87.30
2023-03-05T20:38:29.542Z,87.19
2023-03-05T20:40:30.991Z,87.09
2023-03-05T20:42:33.132Z,86.23
2023-03-05T20:44:34.644Z,87.06
2023-03-05T20:46:41.847Z,86.95
2023-03-05T20:48:43.757Z,86.66
2023-03-05T20:50:46.820Z,86.70
2023-03-05T20:52:48.265Z,86.76
2023-03-05T20:54:49.765Z,86.68
2023-03-05T20:56:51.262Z,86.74
2023-03-05T20:58:52.717Z,86.41
2023-03-05T21:00:54.800Z,86.24
2023-03-05T21:02:56.522Z,86.92
2023-03-05T21:04:58.023Z,86.40
2023-03-05T21:06:59.467Z,85.97
2023-03-05T21:09:01.013Z,86.61
2023-03-05T21:11:07.972Z,86.52
2023-03-05T21:13:09.425Z,86.40
2023-03-05T21:15:17.311Z,86.38
2023-03-05T21:17:19.611Z,86.61
2023-03-05T21:19:21.053Z,86.50
2023-03-05T21:21:22.657Z,86.63
2023-03-05T21:23:24.165Z,86.75
2023-03-05T21:25:30.164Z,86.57
2023-03-05T21:27:31.614Z,86.71
2023-03-05T21:29:33.074Z,87.03
2023-03-05T21:31:34.677Z,86.91
2023-03-05T21:33:37.431Z,87.26
2023-03-05T21:35:40.358Z,87.31
2023-03-05T21:37:42.864Z,87.50
2023-03-05T21:39:44.340Z,87.03
2023-03-05T21:41:47.157Z,87.21
2023-03-05T21:43:48.806Z,86.81
2023-03-05T21:45:53.495Z,87.06
2023-03-05T21:47:56.221Z,86.88
2023-03-05T21:49:57.861Z,87.02
2023-03-05T21:52:09.052Z,86.81
2023-03-05T21:54:10.567Z,86.83
2023-03-05T21:56:12.873Z,86.60
2023-03-05T21:58:14.698Z,86.61
2023-03-05T22:00:22.541Z,86.65
2023-03-05T22:02:24.794Z,86.73
2023-03-05T22:04:26.289Z,86.73
2023-03-05T22:06:27.763Z,86.80
2023-03-05T22:08:29.994Z,87.00
2023-03-05T22:10:31.518Z,86.51
2023-03-05T22:13:02.190Z,87.17
2023-03-05T22:15:03.944Z,86.97
2023-03-05T22:17:05.568Z,86.83
2023-03-05T22:19:07.162Z,87.29
2023-03-05T22:21:17.035Z,86.83
2023-03-05T22:23:23.167Z,87.36
2023-03-05T22:25:24.640Z,86.62
2023-03-05T22:27:26.081Z,86.61
2023-03-05T22:29:28.559Z,86.87
2023-03-05T22:31:30.561Z,86.49
2023-03-05T22:33:32.459Z,86.86
2023-03-05T22:35:33.936Z,86.81
2023-03-05T22:37:35.453Z,87.06
2023-03-05T22:39:36.980Z,87.02
2023-03-05T22:41:40.763Z,86.67
2023-03-05T22:43:42.356Z,86.76
2023-03-05T22:45:44.007Z,86.60
2023-03-05T22:47:51.594Z,86.18
2023-03-05T22:49:53.571Z,86.38
2023-03-05T22:51:55.029Z,86.18
2023-03-05T22:53:56.502Z,86.25
2023-03-05T22:55:58.082Z,86.04
2023-03-05T22:57:59.633Z,86.39
2023-03-05T23:00:01.080Z,86.63
2023-03-05T23:02:02.900Z,86.72
2023-03-05T23:04:13.365Z,86.73
2023-03-05T23:06:14.873Z,86.73
2023-03-05T23:08:16.323Z,86.84
2023-03-05T23:10:24.935Z,86.73
2023-03-05T23:12:30.336Z,86.53
2023-03-05T23:14:31.827Z,86.73
2023-03-05T23:16:33.275Z,87.06
2023-03-05T23:18:34.788Z,87.18
2023-03-05T23:20:37.284Z,87.70
2023-03-05T23:22:39.971Z,87.83
2023-03-05T23:24:41.530Z,87.76
2023-03-05T23:26:43.029Z,87.15
2023-03-05T23:28:44.568Z,86.71
2023-03-05T23:30:46.193Z,87.29
2023-03-05T23:32:52.801Z,87.96
2023-03-05T23:34:55.837Z,88.14
2023-03-05T23:37:00.520Z,88.59
2023-03-05T23:39:01.983Z,89.24
2023-03-05T23:41:08.597Z,90.37
2023-03-05T23:43:10.861Z,91.63
2023-03-05T23:45:14.437Z,92.10
2023-03-05T23:47:15.890Z,92.39
2023-03-05T23:49:17.348Z,93.47
2023-03-05T23:51:19.129Z,93.97
2023-03-05T23:53:24.106Z,94.62
2023-03-05T23:55:28.579Z,94.61
2023-03-05T23:57:30.323Z,95.04
2023-03-05T23:59:32.155Z,94.97
